Time;durP1;ratioP1;P1;durP2;ratioP2;P2;SDS_P1;SDS_P2;PMS_P1;PMS_P2;Temp;Humidity;BMP_temperature;BMP_pressure;BME280_temperature;BME280_humidity;BME280_pressure;Samples;Min_cycle;Max_cycle;Signal;HPM_P1;HPM_P2
2022/12/11 00:00:26;;;;;;;23.10;15.87;;;;;;;6.21;100.00;99919.03;1744863;81;21264;-62
2022/12/11 00:02:55;;;;;;;17.37;13.77;;;;;;;6.24;100.00;99915.29;1742971;81;21348;-60
2022/12/11 00:05:22;;;;;;;19.90;13.60;;;;;;;6.26;100.00;99922.42;1753576;81;20937;-62
2022/12/11 00:07:50;;;;;;;19.47;12.93;;;;;;;6.27;100.00;99931.80;1753395;81;21181;-58
2022/12/11 00:10:18;;;;;;;19.07;14.23;;;;;;;6.28;100.00;99929.52;1753268;81;21270;-64
2022/12/11 00:12:45;;;;;;;15.87;12.80;;;;;;;6.29;100.00;99934.55;1748087;81;21308;-59
2022/12/11 00:15:14;;;;;;;16.63;12.83;;;;;;;6.31;100.00;99931.78;1746541;81;21280;-59
2022/12/11 00:17:42;;;;;;;19.43;13.40;;;;;;;6.31;100.00;99931.30;1746412;82;21342;-58
2022/12/11 00:20:11;;;;;;;16.77;12.40;;;;;;;6.31;100.00;99936.96;1732049;81;21227;-66
2022/12/11 00:22:38;;;;;;;15.90;12.40;;;;;;;6.32;100.00;99939.87;1743111;81;21426;-59
2022/12/11 00:25:07;;;;;;;16.80;12.67;;;;;;;6.33;100.00;99932.45;1752121;81;21879;-66
2022/12/11 00:27:34;;;;;;;17.33;13.23;;;;;;;6.31;100.00;99927.41;1755994;81;21382;-60
2022/12/11 00:30:04;;;;;;;15.47;11.80;;;;;;;6.30;100.00;99930.17;1750805;81;21697;-60
2022/12/11 00:32:31;;;;;;;15.43;12.37;;;;;;;6.34;100.00;99932.77;1749610;81;21782;-60
2022/12/11 00:34:59;;;;;;;17.30;12.70;;;;;;;6.31;100.00;99927.41;1754430;81;21224;-61
2022/12/11 00:37:26;;;;;;;15.53;11.77;;;;;;;6.36;100.00;99925.63;1756027;81;21945;-60
2022/12/11 00:39:54;;;;;;;15.20;11.00;;;;;;;6.34;100.00;99919.33;1710605;81;21228;-59
2022/12/11 00:42:21;;;;;;;15.37;12.27;;;;;;;6.30;100.00;99916.74;1746455;81;21310;-59
2022/12/11 00:44:49;;;;;;;18.30;13.90;;;;;;;6.33;100.00;99911.73;1753246;81;21440;-64
2022/12/11 00:47:17;;;;;;;18.37;12.57;;;;;;;6.32;100.00;99916.08;1746546;81;21293;-59
2022/12/11 00:49:44;;;;;;;16.80;12.70;;;;;;;6.33;100.00;99916.91;1752354;81;21240;-58
2022/12/11 00:52:11;;;;;;;16.60;12.80;;;;;;;6.36;100.00;99920.94;1753843;81;21196;-59
2022/12/11 00:54:38;;;;;;;18.17;12.67;;;;;;;6.37;100.00;99918.69;1747888;81;21764;-59
2022/12/11 00:57:07;;;;;;;16.93;13.47;;;;;;;6.37;100.00;99927.27;1755732;81;21340;-61
2022/12/11 00:59:34;;;;;;;16.00;13.07;;;;;;;6.39;100.00;99916.23;1751833;81;21218;-59
2022/12/11 01:02:01;;;;;;;16.63;12.47;;;;;;;6.39;100.00;99918.03;1746561;82;21234;-67
2022/12/11 01:04:29;;;;;;;16.47;12.50;;;;;;;6.39;100.00;99920.61;1744714;81;21232;-58
2022/12/11 01:06:56;;;;;;;16.90;12.60;;;;;;;6.41;100.00;99909.13;1743572;82;21231;-63
2022/12/11 01:12:11;;;;;;;15.03;11.67;;;;;;;6.42;100.00;99908.16;1743878;82;21287;-59
2022/12/11 01:14:39;;;;;;;17.27;13.97;;;;;;;6.44;100.00;99901.04;1743670;82;20988;-66
2022/12/11 01:17:06;;;;;;;17.80;13.93;;;;;;;6.43;100.00;99908.47;1744108;82;21303;-58
2022/12/11 01:19:34;;;;;;;17.97;12.97;;;;;;;6.43;100.00;99893.42;1744254;82;21724;-59
2022/12/11 01:22:01;;;;;;;16.63;12.63;;;;;;;6.33;100.00;99891.03;1743503;82;21759;-58
2022/12/11 01:24:29;;;;;;;17.93;12.60;;;;;;;6.35;100.00;99892.95;1743964;82;22414;-66
2022/12/11 01:26:56;;;;;;;17.27;13.43;;;;;;;6.30;100.00;99892.64;1743720;82;21817;-61
2022/12/11 01:29:23;;;;;;;19.03;13.20;;;;;;;6.28;100.00;99888.10;1744275;82;22079;-59
2022/12/11 01:31:51;;;;;;;17.40;12.90;;;;;;;6.29;100.00;99892.33;1743667;82;21767;-60
2022/12/11 01:34:18;;;;;;;16.70;13.47;;;;;;;6.25;100.00;99880.66;1744096;82;21393;-60
2022/12/11 01:36:46;;;;;;;20.03;14.27;;;;;;;6.31;100.00;99889.08;1743608;82;21367;-58
2022/12/11 01:39:13;;;;;;;18.40;13.80;;;;;;;6.32;100.00;99884.21;1744147;82;21981;-61
2022/12/11 01:41:40;;;;;;;21.70;13.10;;;;;;;6.33;100.00;99888.44;1744058;82;21960;-59
2022/12/11 01:44:18;;;;;;;21.10;14.57;;;;;;;6.31;100.00;99887.78;1743482;82;21250;-58
2022/12/11 01:46:45;;;;;;;17.57;12.93;;;;;;;6.31;100.00;99890.37;1743960;82;21038;-58
2022/12/11 01:49:13;;;;;;;19.63;12.67;;;;;;;6.32;100.00;99889.39;1744399;82;21164;-59
2022/12/11 01:52:12;;;;;;;17.07;12.87;;;;;;;6.31;100.00;99891.66;1744663;82;21113;-58
2022/12/11 01:54:39;;;;;;;17.73;13.37;;;;;;;6.30;100.00;99883.58;1744691;82;21942;-58
2022/12/11 01:57:07;;;;;;;17.93;13.07;;;;;;;6.29;100.00;99885.38;1744491;82;21137;-58
2022/12/11 01:59:36;;;;;;;19.30;13.27;;;;;;;6.28;100.00;99889.40;1743995;82;21095;-58
2022/12/11 02:02:07;;;;;;;17.93;12.60;;;;;;;6.27;100.00;99885.20;1743996;82;21309;-59
2022/12/11 02:04:35;;;;;;;18.57;12.68;;;;;;;6.26;100.00;99888.77;1736760;82;21163;-60
2022/12/11 02:07:02;;;;;;;18.03;13.40;;;;;;;6.25;100.00;99892.31;1731050;82;21193;-59
2022/12/11 02:09:33;;;;;;;17.27;12.80;;;;;;;6.24;100.00;99888.91;1730408;82;21200;-58
2022/12/11 02:12:32;;;;;;;19.15;13.48;;;;;;;6.20;100.00;99885.04;1749133;81;21181;-58
2022/12/11 02:15:17;;;;;;;18.60;13.60;;;;;;;6.19;100.00;99887.31;1696563;83;21472;-58
2022/12/11 02:18:12;;;;;;;17.63;13.07;;;;;;;6.21;100.00;99889.73;1746644;82;22583;-59
2022/12/11 02:20:56;;;;;;;18.53;13.07;;;;;;;6.19;100.00;99891.20;1746566;81;21250;-58
2022/12/11 02:23:59;;;;;;;18.93;13.63;;;;;;;6.21;100.00;99893.16;1746415;81;21921;-58
2022/12/11 02:27:14;;;;;;;17.10;13.53;;;;;;;6.21;100.00;99897.48;1746179;82;21155;-61
2022/12/11 02:29:58;;;;;;;21.73;13.30;;;;;;;6.19;100.00;99898.16;1746407;82;21631;-69
2022/12/11 02:32:30;;;;;;;19.40;14.50;;;;;;;6.16;100.00;99895.40;1746084;81;21338;-61
2022/12/11 02:35:05;;;;;;;20.60;14.70;;;;;;;6.14;100.00;99888.77;1746918;82;21214;-61
2022/12/11 02:37:35;;;;;;;21.40;15.07;;;;;;;6.15;100.00;99885.22;1746200;81;21803;-58
2022/12/11 02:40:04;;;;;;;19.73;14.87;;;;;;;6.11;100.00;99878.76;1746078;81;21642;-59
2022/12/11 02:42:32;;;;;;;20.87;14.07;;;;;;;6.09;100.00;99874.53;1746584;82;21185;-59
2022/12/11 02:44:59;;;;;;;20.93;14.07;;;;;;;6.05;100.00;99873.24;1746758;82;21719;-58
2022/12/11 02:47:27;;;;;;;19.27;14.37;;;;;;;6.05;100.00;99873.73;1746014;81;22401;-58
2022/12/11 02:49:54;;;;;;;19.17;14.97;;;;;;;6.02;100.00;99873.59;1746000;82;21844;-60
2022/12/11 02:52:21;;;;;;;18.97;14.53;;;;;;;5.99;100.00;99876.50;1744258;82;22344;-58
2022/12/11 02:54:49;;;;;;;21.63;14.50;;;;;;;5.97;100.00;99882.31;1725244;82;21865;-59
2022/12/11 02:57:32;;;;;;;20.60;14.30;;;;;;;5.95;100.00;99885.56;1746216;81;21785;-59
2022/12/11 02:59:59;;;;;;;23.17;15.10;;;;;;;5.93;100.00;99892.66;1730240;82;21126;-59
2022/12/11 03:02:28;;;;;;;19.53;13.13;;;;;;;5.91;100.00;99891.16;1746568;82;21324;-59
2022/12/11 03:04:56;;;;;;;19.97;14.30;;;;;;;5.88;100.00;99885.85;1727756;82;21045;-64
2022/12/11 03:07:33;;;;;;;19.93;14.57;;;;;;;5.86;100.00;99891.16;1723991;83;21361;-59
2022/12/11 03:10:00;;;;;;;19.50;13.57;;;;;;;5.90;100.00;99892.95;1723831;83;21230;-58
2022/12/11 03:12:30;;;;;;;23.80;15.47;;;;;;;5.92;100.00;99897.52;1723992;83;21303;-66
2022/12/11 03:14:59;;;;;;;21.00;14.57;;;;;;;5.90;100.00;99896.83;1723821;83;21747;-59
2022/12/11 03:17:34;;;;;;;21.87;14.77;;;;;;;5.88;100.00;99903.95;1724018;83;21253;-58
2022/12/11 03:20:12;;;;;;;19.37;13.87;;;;;;;5.84;100.00;99893.61;1722885;82;21265;-59
2022/12/11 03:23:09;;;;;;;19.77;14.70;;;;;;;5.86;100.00;99901.52;1724021;83;21393;-58
2022/12/11 03:25:50;;;;;;;22.40;14.57;;;;;;;5.89;100.00;99912.52;1723519;83;21302;-68
2022/12/11 03:28:22;;;;;;;21.60;13.25;;;;;;;5.88;100.00;99909.62;1720955;82;21371;-61
2022/12/11 03:30:50;;;;;;;20.57;13.73;;;;;;;5.83;100.00;99912.66;1723747;83;21043;-59
2022/12/11 03:33:34;;;;;;;21.23;14.90;;;;;;;5.88;100.00;99919.97;1723329;83;21055;-59
2022/12/11 03:36:06;;;;;;;19.67;14.03;;;;;;;5.85;100.00;99918.01;1743231;81;22640;-59
2022/12/11 03:38:42;;;;;;;20.67;13.27;;;;;;;5.84;100.00;99927.23;1753416;81;21523;-59
2022/12/11 03:41:09;;;;;;;19.50;13.03;;;;;;;5.83;100.00;99925.59;1673155;84;21274;-63
2022/12/11 03:43:36;;;;;;;22.67;14.53;;;;;;;5.82;100.00;99937.72;1753714;81;21121;-58
2022/12/11 03:46:05;;;;;;;23.00;13.87;;;;;;;5.82;100.00;99933.04;1754047;81;21231;-59
2022/12/11 03:48:34;;;;;;;23.53;14.50;;;;;;;5.84;100.00;99937.58;1734802;81;21275;-59
2022/12/11 03:51:02;;;;;;;20.63;13.97;;;;;;;5.84;100.00;99941.46;1753525;81;22463;-59
2022/12/11 03:53:30;;;;;;;22.20;13.13;;;;;;;5.83;100.00;99926.89;1753485;81;21201;-64
2022/12/11 03:55:57;;;;;;;20.57;14.07;;;;;;;5.83;100.00;99927.72;1754025;81;21179;-59
2022/12/11 03:58:25;;;;;;;19.70;13.90;;;;;;;5.84;100.00;99929.82;1753992;81;21242;-59
2022/12/11 04:00:52;;;;;;;18.73;12.67;;;;;;;5.84;100.00;99931.92;1753828;81;21237;-67
2022/12/11 04:03:19;;;;;;;19.87;13.17;;;;;;;5.87;100.00;99933.36;1753818;81;21134;-60
2022/12/11 04:05:50;;;;;;;19.07;13.73;;;;;;;5.91;100.00;99934.69;1757673;81;21188;-62
2022/12/11 04:08:19;;;;;;;20.10;14.85;;;;;;;5.94;100.00;99933.08;1759359;81;21298;-60
2022/12/11 04:10:46;;;;;;;19.57;12.37;;;;;;;6.00;100.00;99929.05;1759877;81;20941;-61
2022/12/11 04:13:13;;;;;;;18.50;13.30;;;;;;;6.01;100.00;99928.88;1759209;81;21169;-59
2022/12/11 04:15:41;;;;;;;19.37;13.93;;;;;;;6.04;100.00;99913.52;1759502;81;22658;-66
2022/12/11 04:26:26;;;;;;;17.97;12.33;;;;;;;6.07;100.00;99912.72;1759393;81;21247;-59
2022/12/11 04:28:53;;;;;;;20.73;13.00;;;;;;;6.03;100.00;99909.33;1759597;81;21302;-59
2022/12/11 04:31:21;;;;;;;17.17;12.23;;;;;;;6.02;100.00;99912.41;1759388;81;21030;-61
2022/12/11 04:33:48;;;;;;;17.50;12.27;;;;;;;5.99;100.00;99920.97;1759669;81;21158;-59
2022/12/11 04:36:16;;;;;;;16.77;12.30;;;;;;;5.94;100.00;99925.31;1759426;81;21114;-66
2022/12/11 04:38:43;;;;;;;19.50;13.27;;;;;;;5.89;100.00;99917.20;1759769;81;22585;-59
2022/12/11 04:41:12;;;;;;;21.97;13.97;;;;;;;5.88;100.00;99929.02;1759658;81;21207;-60
2022/12/11 04:43:39;;;;;;;20.70;12.83;;;;;;;5.86;100.00;99930.45;1759114;81;21741;-61
2022/12/11 04:46:15;;;;;;;19.30;13.13;;;;;;;5.85;100.00;99936.11;1757916;81;21368;-66
2022/12/11 04:48:42;;;;;;;18.50;12.10;;;;;;;5.80;100.00;99938.88;1759740;81;21273;-59
2022/12/11 04:51:10;;;;;;;23.93;13.37;;;;;;;5.74;100.00;99942.08;1759781;81;21180;-59
2022/12/11 04:53:37;;;;;;;18.77;13.43;;;;;;;5.72;100.00;99950.47;1759122;81;22209;-61
2022/12/11 04:56:06;;;;;;;20.13;12.97;;;;;;;5.70;100.00;99952.42;1759312;81;21338;-66
2022/12/11 04:58:37;;;;;;;22.90;12.80;;;;;;;5.68;100.00;99951.76;1759682;81;21184;-62
2022/12/11 05:01:17;;;;;;;26.07;16.93;;;;;;;5.67;100.00;99952.73;1759706;81;21189;-63
2022/12/11 05:03:45;;;;;;;20.23;14.50;;;;;;;5.69;100.00;99955.98;1759738;81;21237;-60
2022/12/11 05:06:12;;;;;;;21.83;15.40;;;;;;;5.66;100.00;99955.00;1754152;81;23180;-61
2022/12/11 05:08:40;;;;;;;21.17;13.40;;;;;;;5.61;100.00;99958.88;1753955;81;21293;-59
2022/12/11 05:11:10;;;;;;;20.60;13.00;;;;;;;5.54;100.00;99951.42;1754112;81;21239;-67
2022/12/11 05:13:38;;;;;;;23.23;14.17;;;;;;;5.47;100.00;99946.55;1754043;81;21111;-61
2022/12/11 05:16:07;;;;;;;19.33;13.43;;;;;;;5.38;100.00;99951.38;1753414;81;21221;-59
2022/12/11 05:18:35;;;;;;;18.93;12.07;;;;;;;5.32;100.00;99946.83;1739659;81;21972;-59
2022/12/11 05:21:05;;;;;;;21.03;12.83;;;;;;;5.27;100.00;99942.63;1711364;83;21215;-65
2022/12/11 05:23:32;;;;;;;19.07;12.03;;;;;;;5.25;100.00;99936.78;1706378;84;21219;-59
2022/12/11 05:26:03;;;;;;;20.77;12.03;;;;;;;5.21;100.00;99936.28;1752966;81;21149;-59
2022/12/11 05:28:32;;;;;;;19.65;12.50;;;;;;;5.17;100.00;99938.86;1754167;81;21836;-59
2022/12/11 05:31:02;;;;;;;19.47;12.43;;;;;;;5.12;100.00;99934.65;1749568;81;21383;-60
2022/12/11 05:33:30;;;;;;;18.47;12.03;;;;;;;5.08;100.00;99945.77;1746662;81;21396;-65
2022/12/11 05:35:57;;;;;;;17.37;10.72;;;;;;;5.04;100.00;99937.20;1750730;81;21241;-59
2022/12/11 05:38:24;;;;;;;18.03;11.60;;;;;;;5.01;100.00;99947.84;1755822;81;21115;-58
2022/12/11 05:40:57;;;;;;;15.93;10.77;;;;;;;5.00;100.00;99950.08;1754615;81;21051;-66
2022/12/11 05:43:24;;;;;;;16.57;10.63;;;;;;;4.99;100.00;99951.05;1750761;81;21168;-65
2022/12/11 05:45:52;;;;;;;16.40;10.77;;;;;;;4.99;100.00;99951.05;1746435;81;21879;-61
2022/12/11 05:48:21;;;;;;;16.27;10.73;;;;;;;5.03;100.00;99954.45;1755461;81;21367;-59
2022/12/11 05:51:00;;;;;;;14.80;10.23;;;;;;;5.05;100.00;99961.58;1756283;81;21747;-62
2022/12/11 05:53:27;;;;;;;15.10;10.53;;;;;;;5.09;100.00;99965.47;1670331;83;21340;-66
2022/12/11 05:55:54;;;;;;;16.75;10.65;;;;;;;5.13;100.00;99962.09;1700832;83;21404;-62
2022/12/11 05:58:21;;;;;;;16.47;10.23;;;;;;;5.19;100.00;99962.78;1704866;82;21068;-62
2022/12/11 06:00:49;;;;;;;16.43;10.60;;;;;;;5.23;100.00;99960.21;1692969;84;21321;-67
2022/12/11 06:03:17;;;;;;;16.40;10.80;;;;;;;5.27;100.00;99958.13;1677092;85;21457;-68
2022/12/11 06:05:44;;;;;;;13.23;9.97;;;;;;;5.31;100.00;99956.84;1693505;83;21133;-63
2022/12/11 06:08:11;;;;;;;19.50;11.67;;;;;;;5.37;100.00;99959.59;1704123;83;21319;-60
2022/12/11 06:10:47;;;;;;;15.40;9.90;;;;;;;5.46;100.00;99955.77;1692147;84;21180;-59
2022/12/11 06:13:15;;;;;;;15.20;10.13;;;;;;;5.53;100.00;99966.61;1692206;84;21111;-67
2022/12/11 06:15:42;;;;;;;16.83;10.23;;;;;;;5.73;100.00;99965.05;1692767;84;21273;-60
2022/12/11 06:18:09;;;;;;;16.97;10.50;;;;;;;6.00;100.00;99958.31;1692997;84;21190;-60
2022/12/11 06:20:38;;;;;;;14.83;9.73;;;;;;;6.20;100.00;99953.63;1696133;83;21298;-60
2022/12/11 06:23:06;;;;;;;15.40;10.80;;;;;;;6.30;100.00;99960.75;1692454;84;21114;-66
2022/12/11 06:25:37;;;;;;;15.27;10.00;;;;;;;6.37;100.00;99958.33;1692816;83;21750;-60
2022/12/11 06:28:04;;;;;;;14.70;10.13;;;;;;;6.39;100.00;99957.66;1668182;84;22064;-61
2022/12/11 06:30:31;;;;;;;16.53;10.73;;;;;;;6.41;100.00;99962.20;1692127;84;21200;-60
2022/12/11 06:32:59;;;;;;;15.30;10.57;;;;;;;6.46;100.00;99953.94;1692903;83;22231;-60
2022/12/11 06:35:27;;;;;;;18.73;10.50;;;;;;;6.50;100.00;99953.45;1715215;83;21145;-60
2022/12/11 06:37:54;;;;;;;16.53;10.50;;;;;;;6.56;100.00;99942.94;1721698;82;22581;-60
2022/12/11 06:40:21;;;;;;;15.43;10.70;;;;;;;6.67;100.00;99949.55;1712651;82;21824;-60
2022/12/11 06:42:48;;;;;;;14.87;11.03;;;;;;;6.79;100.00;99952.11;1721570;83;21333;-61
2022/12/11 06:45:15;;;;;;;17.57;10.50;;;;;;;6.90;100.00;99952.25;1721344;83;21825;-60
2022/12/11 06:47:43;;;;;;;14.60;10.87;;;;;;;6.97;100.00;99960.48;1721740;83;21770;-60
2022/12/11 06:50:11;;;;;;;17.77;11.13;;;;;;;7.04;100.00;99969.19;1694277;83;21311;-63
2022/12/11 06:52:38;;;;;;;17.23;11.53;;;;;;;7.04;100.00;99969.19;1692570;84;21466;-60
2022/12/11 06:55:07;;;;;;;15.47;11.30;;;;;;;7.02;100.00;99966.46;1692298;84;21304;-61
2022/12/11 06:57:34;;;;;;;17.23;11.93;;;;;;;6.90;100.00;99970.39;1692782;84;21358;-60
2022/12/11 07:00:01;;;;;;;17.07;11.73;;;;;;;6.87;100.00;99967.62;1692676;84;21411;-60
2022/12/11 07:02:28;;;;;;;17.63;12.17;;;;;;;6.91;100.00;99977.98;1717273;83;21765;-61
2022/12/11 07:04:56;;;;;;;16.10;10.73;;;;;;;6.91;100.00;99977.98;1721120;83;22053;-64
2022/12/11 07:07:23;;;;;;;14.30;9.90;;;;;;;6.89;100.00;99972.14;1721956;83;21882;-60
2022/12/11 07:09:52;;;;;;;15.97;10.87;;;;;;;6.82;100.00;99972.52;1720703;82;21498;-60
2022/12/11 07:12:19;;;;;;;17.00;10.90;;;;;;;6.80;100.00;99968.77;1720890;83;21248;-61
2022/12/11 07:14:47;;;;;;;15.70;11.07;;;;;;;6.76;100.00;99970.57;1718679;82;21242;-68
2022/12/11 07:17:14;;;;;;;13.17;9.77;;;;;;;6.71;100.00;99971.56;1708269;83;21895;-61
2022/12/11 07:19:42;;;;;;;13.23;9.70;;;;;;;6.64;100.00;99968.01;1702854;83;21149;-60
2022/12/11 07:22:09;;;;;;;14.67;10.13;;;;;;;6.64;100.00;99968.01;1720768;83;21842;-61
2022/12/11 07:24:36;;;;;;;11.20;8.87;;;;;;;6.62;100.00;99966.05;1722539;83;21568;-66
2022/12/11 07:27:04;;;;;;;12.97;9.63;;;;;;;6.63;100.00;99968.50;1716158;83;21845;-62
2022/12/11 07:29:31;;;;;;;14.50;10.50;;;;;;;6.70;100.00;99962.16;1710111;83;21898;-63
2022/12/11 07:31:58;;;;;;;15.17;10.43;;;;;;;6.74;100.00;99963.44;1710682;83;22265;-61
2022/12/11 07:34:26;;;;;;;14.40;10.23;;;;;;;6.78;100.00;99966.02;1709237;83;21303;-61
2022/12/11 07:36:54;;;;;;;16.07;10.97;;;;;;;6.81;100.00;99961.80;1712792;82;21205;-62
2022/12/11 07:39:21;;;;;;;14.20;9.13;;;;;;;6.86;100.00;99963.44;1715517;83;21187;-64
2022/12/11 07:41:49;;;;;;;14.70;9.60;;;;;;;6.88;100.00;99958.88;1715805;83;21329;-62
2022/12/11 07:44:18;;;;;;;13.67;10.13;;;;;;;6.94;100.00;99963.41;1720617;82;21303;-62
2022/12/11 07:46:45;;;;;;;12.87;9.20;;;;;;;7.02;100.00;99953.50;1721643;82;21255;-69
2022/12/11 07:49:12;;;;;;;11.97;8.53;;;;;;;7.09;100.00;99954.94;1706279;82;21423;-64
2022/12/11 07:51:40;;;;;;;14.33;9.83;;;;;;;7.24;100.00;99950.17;1716509;83;21482;-63
2022/12/11 07:54:11;;;;;;;15.20;9.87;;;;;;;7.24;100.00;99950.17;1697874;83;21835;-64
2022/12/11 07:56:38;;;;;;;13.08;9.28;;;;;;;7.33;100.00;99954.83;1691423;84;21445;-70
2022/12/11 07:59:05;;;;;;;12.37;9.20;;;;;;;7.49;100.00;99956.04;1690369;84;22064;-64
2022/12/11 08:01:35;;;;;;;12.43;8.43;;;;;;;7.82;100.00;99945.48;1691493;84;21441;-66
2022/12/11 08:04:04;;;;;;;12.53;9.70;;;;;;;7.82;100.00;99945.48;1691219;84;21686;-64
2022/12/11 08:06:34;;;;;;;11.37;8.73;;;;;;;8.01;100.00;99945.02;1686480;84;21343;-72
2022/12/11 08:09:03;;;;;;;14.77;9.30;;;;;;;8.01;100.00;99945.02;1746980;81;21593;-63
2022/12/11 08:11:30;;;;;;;14.37;9.20;;;;;;;8.10;100.00;99943.64;1748712;81;21755;-63
2022/12/11 08:13:58;;;;;;;16.90;9.90;;;;;;;8.16;100.00;99933.37;1748916;81;21433;-63
2022/12/11 08:16:25;;;;;;;13.33;8.80;;;;;;;8.25;100.00;99933.61;1723816;83;21658;-70
2022/12/11 08:18:53;;;;;;;12.90;8.20;;;;;;;8.45;100.00;99927.98;1723033;83;21663;-63
2022/12/11 08:21:23;;;;;;;14.13;9.93;;;;;;;8.71;100.00;99923.63;1724024;83;21782;-64
2022/12/11 08:23:50;;;;;;;11.47;8.20;;;;;;;8.98;100.00;99926.11;1724247;83;22186;-64
2022/12/11 08:26:21;;;;;;;12.00;7.70;;;;;;;9.27;100.00;99862.83;1724124;83;21742;-63
2022/12/11 08:28:48;;;;;;;13.32;9.00;;;;;;;9.63;100.00;99919.25;1722923;83;20940;-64
2022/12/11 08:31:16;;;;;;;13.73;10.30;;;;;;;9.97;100.00;99915.47;1723998;83;21165;-64
2022/12/11 08:33:43;;;;;;;13.73;8.90;;;;;;;10.27;100.00;99910.13;1732037;81;21009;-65
2022/12/11 08:36:13;;;;;;;12.10;9.07;;;;;;;10.53;100.00;99912.59;1744107;81;21213;-64
2022/12/11 08:38:40;;;;;;;12.20;8.77;;;;;;;10.69;100.00;99914.41;1723939;81;20878;-71
2022/12/11 08:41:13;;;;;;;13.27;8.83;;;;;;;10.84;100.00;99906.47;1743497;81;20997;-65
2022/12/11 08:43:41;;;;;;;11.73;7.70;;;;;;;10.90;100.00;99905.67;1749381;81;21517;-65
2022/12/11 08:46:08;;;;;;;13.73;9.50;;;;;;;10.90;100.00;99915.31;1724681;83;21463;-65
2022/12/11 08:48:36;;;;;;;11.17;8.30;;;;;;;10.84;100.00;99906.47;1723961;83;22341;-70
2022/12/11 08:51:08;;;;;;;12.07;9.13;;;;;;;10.70;100.00;99900.37;1723846;83;21098;-66
2022/12/11 08:53:35;;;;;;;12.23;8.47;;;;;;;10.56;100.00;99905.19;1725281;81;21009;-65
2022/12/11 08:56:06;;;;;;;10.87;8.63;;;;;;;10.42;100.00;99908.23;1753031;81;20992;-65
2022/12/11 08:58:34;;;;;;;13.33;8.60;;;;;;;10.27;100.00;99910.13;1750581;81;20937;-69
2022/12/11 09:01:07;;;;;;;11.13;8.70;;;;;;;10.15;100.00;99909.81;1749987;81;21221;-66
2022/12/11 09:03:36;;;;;;;13.47;8.67;;;;;;;10.08;100.00;99919.87;1752797;81;21472;-65
2022/12/11 09:06:07;;;;;;;13.03;8.37;;;;;;;9.99;100.00;99913.96;1750035;81;32986;-65
2022/12/11 09:08:35;;;;;;;12.43;9.23;;;;;;;9.94;100.00;99908.02;1747155;81;21039;-66
2022/12/11 09:11:06;;;;;;;13.10;10.60;;;;;;;9.90;100.00;99914.59;1746687;81;21032;-70
2022/12/11 09:13:33;;;;;;;;;;;;;;;9.96;100.00;99907.36;1749656;82;21181;-68
2022/12/11 09:16:02;;;;;;;14.63;9.87;;;;;;;10.10;100.00;99906.14;1747346;82;20154;-64
2022/12/11 09:18:31;;;;;;;16.43;10.93;;;;;;;10.13;100.00;99900.56;1746985;81;21077;-68
2022/12/11 09:21:02;;;;;;;15.10;9.97;;;;;;;10.16;100.00;99894.98;1738902;80;20964;-66
2022/12/11 09:23:29;;;;;;;13.27;9.83;;;;;;;10.12;100.00;99893.75;1749695;81;21098;-65
2022/12/11 09:25:58;;;;;;;16.27;10.37;;;;;;;9.99;100.00;99901.75;1730432;81;21447;-65
2022/12/11 09:28:26;;;;;;;14.83;10.17;;;;;;;9.89;100.00;99894.77;1724417;83;20985;-65
2022/12/11 09:30:53;;;;;;;15.90;10.47;;;;;;;9.84;100.00;99897.11;1676714;84;20950;-66
2022/12/11 09:33:20;;;;;;;15.57;9.63;;;;;;;9.78;100.00;99895.27;1690839;84;21326;-65
2022/12/11 09:36:01;;;;;;;13.30;10.23;;;;;;;9.74;100.00;99897.94;1754592;81;21049;-64
2022/12/11 09:38:28;;;;;;;13.53;9.25;;;;;;;9.73;100.00;99897.61;1754949;81;21127;-67
2022/12/11 09:40:56;;;;;;;11.70;8.23;;;;;;;9.79;100.00;99897.38;1752096;81;20993;-65
2022/12/11 09:43:43;;;;;;;13.33;9.07;;;;;;;9.82;100.00;99891.30;1724917;83;21467;-65
2022/12/11 09:46:13;;;;;;;13.17;8.37;;;;;;;9.87;100.00;99885.03;1724595;83;21064;-66
2022/12/11 09:48:46;;;;;;;14.20;9.70;;;;;;;9.91;100.00;99870.64;1723736;83;21115;-66
2022/12/11 09:51:21;;;;;;;14.20;9.07;;;;;;;9.96;100.00;99873.50;1723524;83;22725;-65
2022/12/11 09:53:50;;;;;;;14.80;9.90;;;;;;;10.02;100.00;99876.34;1724493;83;21041;-64
2022/12/11 09:56:22;;;;;;;13.17;8.70;;;;;;;10.11;100.00;99868.69;1723800;83;21486;-66
2022/12/11 09:59:16;;;;;;;19.00;10.23;;;;;;;10.25;100.00;99866.52;1724342;83;21119;-65
2022/12/11 10:02:11;;;;;;;15.13;7.80;;;;;;;10.41;100.00;99871.42;1724136;83;21510;-66
2022/12/11 10:04:46;;;;;;;13.47;9.43;;;;;;;10.56;100.00;99869.20;1726545;81;22097;-64
2022/12/11 10:07:28;;;;;;;15.13;9.03;;;;;;;10.74;100.00;99855.67;1752884;81;21486;-65
2022/12/11 10:10:06;;;;;;;14.17;8.67;;;;;;;10.85;100.00;99861.64;1735401;81;21007;-63
2022/12/11 10:13:00;;;;;;;16.83;9.97;;;;;;;10.91;100.00;99860.38;1751325;81;21031;-65
2022/12/11 10:15:54;;;;;;;13.67;9.30;;;;;;;10.94;100.00;99844.31;1750957;81;21018;-64
2022/12/11 10:18:22;;;;;;;;;;;;;;;11.01;100.00;99853.97;1735985;81;21558;-71
2022/12/11 10:21:12;;;;;;;12.83;8.20;;;;;;;11.14;100.00;99848.31;1751509;81;21230;-64
2022/12/11 10:23:53;;;;;;;14.27;9.27;;;;;;;11.30;100.00;99844.53;1720174;83;21008;-64
2022/12/11 10:26:21;;;;;;;16.57;10.40;;;;;;;11.37;100.00;99841.44;1694008;84;21052;-64
2022/12/11 10:28:49;;;;;;;17.67;10.67;;;;;;;11.41;100.00;99837.42;1715368;83;21163;-64
2022/12/11 10:31:38;;;;;;;16.87;10.93;;;;;;;11.38;100.00;99837.81;1660406;86;22269;-64
2022/12/11 10:34:12;;;;;;;14.80;9.60;;;;;;;11.35;100.00;99833.49;1659525;86;21524;-65
2022/12/11 10:36:41;;;;;;;11.90;8.10;;;;;;;11.32;100.00;99842.52;1691790;84;21045;-66
2022/12/11 10:39:18;;;;;;;14.03;9.07;;;;;;;11.32;100.00;99837.80;1693011;84;20964;-66
2022/12/11 10:41:48;;;;;;;13.77;10.10;;;;;;;11.32;100.00;99847.73;1659324;86;21098;-66
2022/12/11 10:44:20;;;;;;;15.43;10.20;;;;;;;11.30;100.00;99845.03;1659845;85;21246;-65
2022/12/11 10:47:06;;;;;;;14.37;8.93;;;;;;;11.25;100.00;99835.67;1660522;86;21023;-65
2022/12/11 10:49:34;;;;;;;12.70;7.97;;;;;;;11.20;100.00;99838.38;1693130;84;21301;-64
2022/12/11 10:52:01;;;;;;;14.50;9.47;;;;;;;11.19;100.00;99828.95;1678605;85;21240;-65
2022/12/11 10:54:40;;;;;;;12.83;8.90;;;;;;;11.19;100.00;99837.28;1678849;85;20954;-66
2022/12/11 10:57:08;;;;;;;12.33;9.20;;;;;;;11.14;100.00;99833.16;1704300;84;21488;-71
2022/12/11 10:59:47;;;;;;;14.07;9.50;;;;;;;11.06;100.00;99832.01;1702915;84;22092;-66
2022/12/11 11:02:29;;;;;;;14.93;10.07;;;;;;;11.01;100.00;99827.39;1678034;85;20969;-66
2022/12/11 11:04:58;;;;;;;13.80;9.77;;;;;;;10.99;100.00;99831.21;1705877;83;20946;-66
2022/12/11 11:07:32;;;;;;;16.55;8.83;;;;;;;10.93;100.00;99827.06;1715606;83;21067;-64
2022/12/11 11:10:12;;;;;;;13.23;8.67;;;;;;;10.90;100.00;99831.36;1722468;83;20934;-67
2022/12/11 11:12:46;;;;;;;14.27;9.60;;;;;;;10.87;100.00;99829.16;1721691;83;21471;-66
2022/12/11 11:15:19;;;;;;;11.67;8.07;;;;;;;10.91;100.00;99820.42;1722134;83;20978;-64
2022/12/11 11:17:49;;;;;;;14.83;8.23;;;;;;;10.94;100.00;99813.02;1714271;83;20956;-67
2022/12/11 11:20:23;;;;;;;13.43;8.75;;;;;;;10.93;100.00;99812.72;1713645;83;20945;-70
2022/12/11 11:22:59;;;;;;;14.03;8.60;;;;;;;10.94;100.00;99818.23;1695739;83;21242;-66
2022/12/11 11:25:28;;;;;;;13.27;7.43;;;;;;;10.91;100.00;99828.25;1703396;83;20941;-66
2022/12/11 11:28:06;;;;;;;14.37;7.97;;;;;;;10.87;100.00;99826.56;1710832;83;20973;-70
2022/12/11 11:30:40;;;;;;;13.00;8.17;;;;;;;10.85;100.00;99819.92;1692634;84;21432;-67
2022/12/11 11:33:16;;;;;;;11.93;7.87;;;;;;;10.83;100.00;99827.12;1693030;84;21004;-67
2022/12/11 11:35:55;;;;;;;13.63;7.80;;;;;;;10.83;100.00;99819.30;1693161;84;21217;-66
2022/12/11 11:38:32;;;;;;;12.57;7.50;;;;;;;10.81;100.00;99807.77;1693056;84;21072;-66
2022/12/11 11:41:16;;;;;;;9.40;6.77;;;;;;;10.82;100.00;99804.16;1642069;86;20976;-66
2022/12/11 11:43:55;;;;;;;12.03;7.23;;;;;;;10.81;100.00;99801.25;1693078;84;21063;-66
2022/12/11 11:46:36;;;;;;;10.53;6.90;;;;;;;10.80;100.00;99806.68;1693400;84;21117;-66